Time;durP1;ratioP1;P1;durP2;ratioP2;P2;SDS_P1;SDS_P2;PMS_P1;PMS_P2;Temp;Humidity;BMP_temperature;BMP_pressure;BME280_temperature;BME280_humidity;BME280_pressure;Samples;Min_cycle;Max_cycle;Signal;HPM_P1;HPM_P2
2021/06/15 00:01:50;;;;;;;5.17;3.23;;;14.00;99.90;;;;;;4942035;29;20237;-83
2021/06/15 00:04:16;;;;;;;5.43;3.30;;;14.00;99.90;;;;;;4957348;29;20196;-83
2021/06/15 00:06:42;;;;;;;5.77;2.90;;;13.90;99.90;;;;;;4940240;29;20229;-83
2021/06/15 00:09:08;;;;;;;4.67;3.43;;;13.90;99.90;;;;;;4942245;29;20173;-83
2021/06/15 00:11:33;;;;;;;5.10;3.70;;;13.90;99.90;;;;;;4959318;29;20173;-84
2021/06/15 00:13:59;;;;;;;8.50;3.83;;;13.80;99.90;;;;;;4941740;29;20287;-84
2021/06/15 00:16:25;;;;;;;6.97;3.40;;;13.80;99.90;;;;;;4940940;29;20305;-83
2021/06/15 00:18:50;;;;;;;6.00;3.90;;;13.80;99.90;;;;;;4957086;29;20173;-82
2021/06/15 00:21:16;;;;;;;5.93;3.83;;;13.80;99.90;;;;;;4939775;29;20190;-83
2021/06/15 00:23:42;;;;;;;4.67;3.43;;;13.80;99.90;;;;;;4939820;29;20291;-83
2021/06/15 00:26:07;;;;;;;6.27;3.77;;;13.80;99.90;;;;;;4958284;29;20193;-83
2021/06/15 00:28:33;;;;;;;5.53;3.77;;;13.80;99.90;;;;;;4940998;29;20547;-82
2021/06/15 00:31:00;;;;;;;4.50;4.10;;;13.60;99.90;;;;;;4941219;29;20723;-83
2021/06/15 00:33:26;;;;;;;8.93;4.30;;;13.50;99.90;;;;;;4941387;29;20199;-83
2021/06/15 00:35:51;;;;;;;5.70;3.90;;;13.50;99.90;;;;;;4941322;29;20537;-83
2021/06/15 00:38:17;;;;;;;6.20;4.03;;;13.40;99.90;;;;;;4941950;29;20176;-83
2021/06/15 00:40:43;;;;;;;5.40;3.63;;;13.40;99.90;;;;;;4961854;29;20177;-83
2021/06/15 00:43:09;;;;;;;5.10;4.10;;;13.30;99.90;;;;;;4945180;29;20264;-83
2021/06/15 00:45:35;;;;;;;6.63;3.70;;;13.20;99.90;;;;;;4962130;29;20224;-83
2021/06/15 00:48:01;;;;;;;7.83;4.30;;;13.20;99.90;;;;;;4944912;29;20224;-83
2021/06/15 00:50:28;;;;;;;4.93;4.07;;;13.10;99.90;;;;;;4963057;29;20320;-83
2021/06/15 00:52:54;;;;;;;4.53;3.60;;;13.10;99.90;;;;;;4951088;29;20602;-83
2021/06/15 00:55:25;;;;;;;6.10;4.40;;;13.10;99.90;;;;;;4943218;29;20192;-83
2021/06/15 00:57:51;;;;;;;5.30;4.03;;;13.00;99.90;;;;;;4943491;29;20197;-83
2021/06/15 01:00:18;;;;;;;4.63;4.13;;;13.00;99.90;;;;;;4943084;29;20185;-83
2021/06/15 01:02:44;;;;;;;9.20;4.17;;;13.00;99.90;;;;;;4942942;29;20272;-83
2021/06/15 01:05:15;;;;;;;4.70;4.10;;;13.10;99.90;;;;;;4961494;29;20239;-83
2021/06/15 01:07:59;;;;;;;4.50;4.10;;;13.00;99.90;;;;;;4960879;29;20560;-83
2021/06/15 01:10:44;;;;;;;7.37;4.10;;;13.10;99.90;;;;;;4961043;29;20204;-83
2021/06/15 01:13:47;;;;;;;6.67;4.10;;;13.00;99.90;;;;;;4960825;29;20197;-84
2021/06/15 01:16:56;;;;;;;8.73;4.30;;;13.00;99.90;;;;;;4960891;29;20212;-83
2021/06/15 01:19:31;;;;;;;7.20;3.37;;;13.00;99.90;;;;;;4942724;29;20669;-83
2021/06/15 01:22:08;;;;;;;5.73;4.67;;;12.90;99.90;;;;;;4942980;29;20176;-83
2021/06/15 01:24:52;;;;;;;5.00;4.30;;;12.80;99.90;;;;;;4943207;29;20200;-83
2021/06/15 01:27:41;;;;;;;5.97;4.13;;;12.70;99.90;;;;;;4960657;29;20694;-84
2021/06/15 01:30:10;;;;;;;5.20;4.30;;;12.70;99.90;;;;;;4942938;29;20180;-83
2021/06/15 01:32:38;;;;;;;7.67;4.60;;;12.70;99.90;;;;;;4943032;29;20180;-83
2021/06/15 01:35:07;;;;;;;5.77;4.67;;;12.70;99.90;;;;;;4960859;29;20185;-83
2021/06/15 01:37:41;;;;;;;4.93;4.23;;;12.70;99.90;;;;;;4961106;29;20204;-84
2021/06/15 01:40:18;;;;;;;6.43;4.57;;;12.70;99.90;;;;;;4960620;29;20169;-84
2021/06/15 01:42:48;;;;;;;6.17;4.50;;;12.60;99.90;;;;;;4959167;29;20169;-83
2021/06/15 01:45:42;;;;;;;7.00;4.67;;;12.60;99.90;;;;;;4943402;29;20263;-84
2021/06/15 01:48:21;;;;;;;8.40;4.93;;;12.60;99.90;;;;;;4960774;29;20150;-84
2021/06/15 01:50:48;;;;;;;7.67;4.67;;;12.60;99.90;;;;;;4943492;29;20173;-84
2021/06/15 01:53:17;;;;;;;5.73;4.37;;;12.60;99.90;;;;;;4943224;29;20228;-83
2021/06/15 01:55:48;;;;;;;5.77;4.33;;;12.60;99.90;;;;;;4960752;29;20347;-83
2021/06/15 01:58:15;;;;;;;10.20;4.67;;;12.60;99.90;;;;;;4943703;29;20643;-84
2021/06/15 02:00:42;;;;;;;4.97;4.27;;;12.60;99.90;;;;;;4943636;29;20184;-84
2021/06/15 02:03:11;;;;;;;8.90;4.70;;;12.60;99.90;;;;;;4960356;29;20513;-83
2021/06/15 02:05:58;;;;;;;9.17;4.97;;;12.60;99.90;;;;;;4943370;29;20208;-84
2021/06/15 02:08:41;;;;;;;5.50;4.53;;;12.50;99.90;;;;;;4943134;29;20177;-83
2021/06/15 02:11:08;;;;;;;5.63;4.57;;;12.50;99.90;;;;;;4960776;29;20173;-84
2021/06/15 02:13:38;;;;;;;8.73;4.60;;;12.50;99.90;;;;;;4943281;29;20556;-84
2021/06/15 02:16:06;;;;;;;5.23;4.70;;;12.50;99.90;;;;;;4943477;29;20201;-84
2021/06/15 02:18:33;;;;;;;8.17;4.80;;;12.50;99.90;;;;;;4943818;29;20212;-84
2021/06/15 02:21:02;;;;;;;5.67;4.50;;;12.60;99.90;;;;;;4961760;29;20539;-84
2021/06/15 02:23:29;;;;;;;6.03;4.40;;;12.50;99.90;;;;;;4951849;29;20184;-84
2021/06/15 02:25:59;;;;;;;6.03;4.67;;;12.50;99.90;;;;;;4967451;29;20184;-83
2021/06/15 02:28:26;;;;;;;7.53;4.83;;;12.50;99.90;;;;;;4959275;29;20208;-83
2021/06/15 02:30:52;;;;;;;5.90;5.10;;;12.50;99.90;;;;;;4941109;29;20518;-84
2021/06/15 02:33:24;;;;;;;7.47;4.70;;;12.50;99.90;;;;;;4959063;29;20183;-83
2021/06/15 02:36:11;;;;;;;8.27;4.60;;;12.50;99.90;;;;;;4941623;29;20542;-84
2021/06/15 02:38:53;;;;;;;7.70;4.93;;;12.40;99.90;;;;;;4958996;29;20165;-83
2021/06/15 02:41:21;;;;;;;7.57;5.30;;;12.40;99.90;;;;;;4959561;29;20224;-84
2021/06/15 02:43:50;;;;;;;4.47;4.07;;;12.40;99.90;;;;;;4942283;29;20222;-84
2021/06/15 02:46:17;;;;;;;5.83;4.77;;;12.40;99.90;;;;;;4959058;29;20229;-84
2021/06/15 02:48:55;;;;;;;8.37;5.77;;;12.40;99.90;;;;;;4942109;29;20188;-83
2021/06/15 02:51:24;;;;;;;7.57;4.90;;;12.30;99.90;;;;;;4960853;29;20661;-84
2021/06/15 02:53:59;;;;;;;9.70;5.17;;;12.30;99.90;;;;;;4959259;29;20177;-83
2021/06/15 02:56:29;;;;;;;8.50;4.80;;;12.30;99.90;;;;;;4942382;29;20291;-84
2021/06/15 02:58:55;;;;;;;6.97;4.50;;;12.30;99.90;;;;;;4959328;29;20264;-83
2021/06/15 03:01:21;;;;;;;5.50;4.80;;;12.20;99.90;;;;;;4941696;29;20267;-83
2021/06/15 03:03:46;;;;;;;5.83;4.30;;;12.20;99.90;;;;;;4958923;29;20208;-84
2021/06/15 03:06:12;;;;;;;9.67;4.50;;;12.20;99.90;;;;;;4959968;29;20200;-83
2021/06/15 03:08:40;;;;;;;7.13;4.97;;;12.20;99.90;;;;;;4958977;29;20204;-83
2021/06/15 03:11:06;;;;;;;5.77;4.37;;;12.20;99.90;;;;;;4942168;29;20187;-83
2021/06/15 03:13:44;;;;;;;7.37;4.60;;;12.10;99.90;;;;;;4942114;29;20734;-83
2021/06/15 03:16:14;;;;;;;4.93;4.17;;;12.10;99.90;;;;;;4942193;29;20199;-83
2021/06/15 03:19:02;;;;;;;8.30;4.60;;;12.10;99.90;;;;;;4959500;29;20196;-83
2021/06/15 03:21:32;;;;;;;8.60;4.57;;;12.10;99.90;;;;;;4959628;29;20232;-83
2021/06/15 03:24:02;;;;;;;5.13;4.27;;;12.10;99.90;;;;;;4942550;29;20245;-83
2021/06/15 03:26:47;;;;;;;4.90;4.23;;;12.00;99.90;;;;;;4942675;29;20284;-83
2021/06/15 03:29:17;;;;;;;6.30;4.47;;;12.00;99.90;;;;;;4959833;29;20184;-83
2021/06/15 03:31:45;;;;;;;6.33;4.60;;;12.00;99.90;;;;;;4944116;29;20183;-83
2021/06/15 03:34:14;;;;;;;7.20;4.83;;;12.00;99.90;;;;;;4964749;29;20180;-83
2021/06/15 03:36:42;;;;;;;7.30;4.40;;;11.90;99.90;;;;;;4943381;29;20200;-84
2021/06/15 03:39:10;;;;;;;6.53;4.43;;;12.00;99.90;;;;;;4959657;29;20180;-83
2021/06/15 03:41:36;;;;;;;10.10;4.80;;;12.00;99.90;;;;;;4959128;29;20217;-83
2021/06/15 03:44:05;;;;;;;9.90;5.07;;;12.00;99.90;;;;;;4960732;29;20205;-82
2021/06/15 03:46:33;;;;;;;10.40;4.90;;;12.00;99.90;;;;;;4959238;29;20232;-84
2021/06/15 03:49:02;;;;;;;5.13;4.07;;;12.00;99.90;;;;;;4942075;29;20177;-83
2021/06/15 03:51:34;;;;;;;7.20;4.70;;;12.00;99.90;;;;;;4941066;29;20173;-84
2021/06/15 03:54:08;;;;;;;9.10;4.90;;;12.00;99.90;;;;;;4941246;29;20192;-83
2021/06/15 03:56:38;;;;;;;7.67;4.90;;;12.00;99.90;;;;;;4941089;29;20248;-83
2021/06/15 03:59:06;;;;;;;8.73;5.40;;;12.00;99.90;;;;;;4941478;29;20276;-83
2021/06/15 04:01:38;;;;;;;6.33;5.33;;;12.00;99.90;;;;;;4941271;29;20177;-83
2021/06/15 04:04:05;;;;;;;7.93;4.40;;;12.10;99.90;;;;;;4941945;29;20560;-83
2021/06/15 04:06:36;;;;;;;5.90;4.60;;;12.10;99.90;;;;;;4957363;29;20189;-83
2021/06/15 04:09:05;;;;;;;5.33;4.50;;;12.20;99.90;;;;;;4958680;29;20173;-84
2021/06/15 04:11:34;;;;;;;9.37;5.07;;;12.20;99.90;;;;;;4941312;29;20193;-84
2021/06/15 04:14:02;;;;;;;6.13;4.33;;;12.30;99.90;;;;;;4943847;29;20197;-83
2021/06/15 04:16:27;;;;;;;5.97;4.27;;;12.40;99.90;;;;;;4962554;29;20683;-83
2021/06/15 04:18:56;;;;;;;7.43;4.70;;;12.40;99.90;;;;;;4944011;29;20199;-83
2021/06/15 04:21:23;;;;;;;6.87;4.00;;;12.50;99.90;;;;;;4943886;29;20184;-83
2021/06/15 04:23:56;;;;;;;5.97;4.77;;;12.60;99.90;;;;;;4944501;29;20215;-84
2021/06/15 04:26:22;;;;;;;5.30;3.90;;;12.70;99.90;;;;;;4962360;29;20554;-83
2021/06/15 04:28:48;;;;;;;9.40;4.07;;;12.70;99.90;;;;;;4945189;29;20181;-83
2021/06/15 04:31:16;;;;;;;7.43;4.43;;;12.80;99.90;;;;;;4963334;29;20182;-83
2021/06/15 04:33:46;;;;;;;5.77;3.83;;;12.90;99.90;;;;;;4946487;29;20184;-83
2021/06/15 04:36:13;;;;;;;4.80;3.63;;;13.00;99.90;;;;;;4963334;29;20195;-83
2021/06/15 04:38:58;;;;;;;4.57;3.70;;;13.10;99.90;;;;;;4946356;29;20209;-83
2021/06/15 04:41:56;;;;;;;5.17;3.93;;;13.20;99.90;;;;;;4946525;29;20276;-83
2021/06/15 04:44:26;;;;;;;5.20;3.90;;;13.30;99.90;;;;;;4946708;29;20205;-84
2021/06/15 04:47:02;;;;;;;4.63;3.80;;;13.40;99.90;;;;;;4947313;29;20205;-84
2021/06/15 04:49:45;;;;;;;8.20;3.80;;;13.50;99.90;;;;;;4964222;29;20165;-83
2021/06/15 04:52:13;;;;;;;9.33;3.80;;;13.60;99.90;;;;;;4947655;29;20181;-84
2021/06/15 04:54:43;;;;;;;8.07;4.10;;;13.70;99.90;;;;;;4954070;29;20189;-83
2021/06/15 04:57:12;;;;;;;5.83;3.37;;;13.80;99.90;;;;;;4944553;29;20201;-83
2021/06/15 04:59:40;;;;;;;5.30;3.40;;;13.80;99.90;;;;;;4944859;29;20208;-83
2021/06/15 05:02:07;;;;;;;6.80;4.10;;;13.90;99.90;;;;;;4944522;29;20193;-83
2021/06/15 05:04:35;;;;;;;9.07;3.23;;;14.00;99.90;;;;;;4944649;29;20213;-83
2021/06/15 05:07:02;;;;;;;5.87;3.80;;;14.10;99.90;;;;;;4961093;29;20201;-82
2021/06/15 05:09:30;;;;;;;4.73;3.70;;;14.10;99.90;;;;;;4970618;29;20236;-83
2021/06/15 05:11:57;;;;;;;7.43;3.67;;;14.20;99.90;;;;;;4948606;29;20219;-83
2021/06/15 05:14:28;;;;;;;10.03;3.70;;;14.30;99.90;;;;;;4961120;29;20196;-83
2021/06/15 05:16:55;;;;;;;6.73;3.53;;;14.40;99.90;;;;;;4960946;29;20204;-82
2021/06/15 05:19:22;;;;;;;7.47;3.20;;;14.50;99.90;;;;;;4960285;29;20214;-82
2021/06/15 05:22:03;;;;;;;12.13;4.00;;;14.60;99.90;;;;;;4961100;29;20189;-83
2021/06/15 05:24:47;;;;;;;11.03;3.80;;;14.70;99.90;;;;;;4962918;28;20205;-82
2021/06/15 05:27:13;;;;;;;8.70;3.33;;;14.80;99.90;;;;;;4944518;29;20204;-82
2021/06/15 05:29:39;;;;;;;10.00;3.40;;;14.90;99.90;;;;;;4962474;29;20196;-82
2021/06/15 05:32:08;;;;;;;5.90;3.43;;;15.00;99.90;;;;;;4962300;29;20256;-82
2021/06/15 05:34:37;;;;;;;8.07;3.70;;;15.10;99.90;;;;;;4961582;29;20188;-82
2021/06/15 05:37:04;;;;;;;5.93;2.73;;;15.20;99.90;;;;;;4943078;29;20639;-81
2021/06/15 05:39:30;;;;;;;5.60;3.17;;;15.40;99.90;;;;;;4960777;29;20181;-81
2021/06/15 05:41:56;;;;;;;5.20;3.30;;;15.40;99.90;;;;;;4961709;29;20230;-82
2021/06/15 05:44:22;;;;;;;5.57;2.83;;;15.50;99.90;;;;;;4961148;29;20663;-80
2021/06/15 05:46:48;;;;;;;4.03;2.63;;;15.60;99.90;;;;;;4943638;29;20291;-81
2021/06/15 05:49:13;;;;;;;6.00;3.20;;;15.70;99.90;;;;;;4945151;29;20181;-81
2021/06/15 05:51:39;;;;;;;4.97;2.60;;;15.70;99.90;;;;;;4945424;29;20181;-82
2021/06/15 05:54:06;;;;;;;7.57;3.00;;;15.80;99.90;;;;;;4947242;29;20252;-82
2021/06/15 05:56:32;;;;;;;5.57;2.90;;;15.90;99.90;;;;;;4946539;29;20211;-82
2021/06/15 05:58:58;;;;;;;4.73;2.77;;;16.00;99.90;;;;;;4963911;29;20173;-82
2021/06/15 06:01:27;;;;;;;5.00;2.83;;;16.00;99.90;;;;;;4963918;29;20272;-82
2021/06/15 06:04:13;;;;;;;4.43;3.03;;;16.10;99.90;;;;;;4947413;29;20193;-82
2021/06/15 06:09:23;;;;;;;4.00;2.57;;;16.20;99.90;;;;;;4966414;29;20224;-83
2021/06/15 06:11:49;;;;;;;5.63;2.90;;;16.30;99.90;;;;;;4948770;29;20181;-82
2021/06/15 06:14:15;;;;;;;7.03;2.37;;;16.40;99.90;;;;;;4966260;29;20208;-82
2021/06/15 06:16:42;;;;;;;6.27;3.03;;;16.50;99.90;;;;;;4969794;29;20207;-83
2021/06/15 06:19:09;;;;;;;5.13;2.83;;;16.60;99.90;;;;;;4944467;29;20188;-82
2021/06/15 06:21:36;;;;;;;8.60;3.30;;;16.70;99.90;;;;;;4959655;29;20199;-82
2021/06/15 06:24:03;;;;;;;4.70;2.53;;;16.90;99.90;;;;;;4961151;29;20663;-82
2021/06/15 06:26:29;;;;;;;7.47;2.57;;;17.00;99.90;;;;;;4962318;29;20197;-82
2021/06/15 06:28:55;;;;;;;4.47;2.97;;;17.10;99.90;;;;;;4944865;29;20603;-82
2021/06/15 06:31:21;;;;;;;3.47;2.67;;;17.20;99.90;;;;;;4962329;29;20627;-82
2021/06/15 06:33:47;;;;;;;3.03;2.40;;;17.30;99.90;;;;;;4963516;29;20691;-82
2021/06/15 06:36:13;;;;;;;4.73;2.97;;;17.50;99.90;;;;;;4944609;29;20283;-84
2021/06/15 06:38:39;;;;;;;5.13;2.90;;;17.60;99.90;;;;;;4944588;29;20172;-82
2021/06/15 06:41:05;;;;;;;7.07;3.00;;;17.70;99.90;;;;;;4945555;29;20184;-82
2021/06/15 06:43:31;;;;;;;4.83;3.10;;;17.80;99.90;;;;;;4947003;29;20178;-83
2021/06/15 06:45:57;;;;;;;5.53;3.23;;;18.00;99.90;;;;;;4945970;29;20210;-82
2021/06/15 06:48:23;;;;;;;6.17;2.80;;;18.10;99.90;;;;;;4945107;29;20176;-82
2021/06/15 06:50:49;;;;;;;4.37;2.83;;;18.20;99.90;;;;;;4960860;29;20195;-82
2021/06/15 06:53:15;;;;;;;4.37;2.60;;;18.20;99.90;;;;;;4944816;29;20210;-82
2021/06/15 06:55:40;;;;;;;7.03;2.93;;;18.40;99.90;;;;;;4962862;29;20184;-83
2021/06/15 06:58:07;;;;;;;3.90;2.83;;;18.50;99.90;;;;;;4965405;29;20184;-82
2021/06/15 07:00:33;;;;;;;3.10;2.67;;;18.60;99.90;;;;;;4946426;29;20216;-82
2021/06/15 07:02:59;;;;;;;4.17;2.47;;;18.70;99.90;;;;;;4961642;29;20189;-82
2021/06/15 07:05:25;;;;;;;6.03;2.73;;;18.80;99.90;;;;;;4943916;29;20672;-82
2021/06/15 07:07:52;;;;;;;5.57;2.80;;;19.00;99.90;;;;;;4943428;29;20198;-82
2021/06/15 07:10:18;;;;;;;4.67;2.60;;;19.00;99.90;;;;;;4943043;29;20254;-82
2021/06/15 07:12:44;;;;;;;4.03;2.73;;;19.20;99.90;;;;;;4943517;29;20557;-82
2021/06/15 07:15:10;;;;;;;6.70;2.77;;;19.30;99.90;;;;;;4943620;29;20289;-82
2021/06/15 07:17:36;;;;;;;4.83;2.80;;;19.50;99.90;;;;;;4943161;29;20205;-82
2021/06/15 07:20:01;;;;;;;6.43;2.97;;;19.70;99.90;;;;;;4943270;29;20362;-82
2021/06/15 07:22:27;;;;;;;6.83;2.57;;;19.90;99.90;;;;;;4945233;29;20186;-82
2021/06/15 07:24:53;;;;;;;5.43;2.87;;;20.00;99.90;;;;;;4962563;29;20211;-82
2021/06/15 07:27:19;;;;;;;4.60;2.80;;;20.10;99.90;;;;;;4963099;29;20269;-82
2021/06/15 07:29:45;;;;;;;5.60;2.87;;;20.20;99.90;;;;;;4945593;29;20178;-82
2021/06/15 07:32:10;;;;;;;4.13;2.73;;;20.40;99.90;;;;;;4962804;29;20260;-82
2021/06/15 07:34:36;;;;;;;10.30;2.80;;;20.60;99.90;;;;;;4945478;29;20179;-82
2021/06/15 07:37:02;;;;;;;10.00;2.90;;;20.70;99.90;;;;;;4944123;29;20209;-82
2021/06/15 07:39:27;;;;;;;5.03;2.50;;;20.80;99.90;;;;;;4944276;29;20288;-82
2021/06/15 07:41:53;;;;;;;6.80;2.77;;;20.90;99.90;;;;;;4961552;29;20191;-82
2021/06/15 07:44:19;;;;;;;11.50;2.53;;;21.00;99.90;;;;;;4944935;29;20224;-82
2021/06/15 07:46:44;;;;;;;7.53;2.47;;;21.10;99.90;;;;;;4966731;28;20204;-82
2021/06/15 07:49:10;;;;;;;8.53;2.47;;;21.20;99.90;;;;;;4952577;29;20191;-82
2021/06/15 07:51:36;;;;;;;12.97;2.50;;;21.40;99.90;;;;;;4946600;29;20186;-82
2021/06/15 07:54:03;;;;;;;7.00;2.77;;;21.40;99.90;;;;;;4946949;29;20233;-82
2021/06/15 07:56:29;;;;;;;4.63;2.60;;;21.40;99.90;;;;;;4947197;29;20239;-82
2021/06/15 07:58:54;;;;;;;5.83;2.47;;;21.40;99.90;;;;;;4964554;29;20186;-82
2021/06/15 08:01:20;;;;;;;5.53;2.40;;;21.50;99.90;;;;;;4964067;29;20187;-82
2021/06/15 08:03:46;;;;;;;4.17;2.63;;;21.70;99.90;;;;;;4947323;29;20189;-82
2021/06/15 08:06:12;;;;;;;7.07;2.47;;;21.80;99.90;;;;;;4947528;29;20263;-82
2021/06/15 08:08:37;;;;;;;11.33;2.63;;;21.90;99.90;;;;;;4947492;29;20185;-81
2021/06/15 08:11:03;;;;;;;12.30;2.80;;;22.20;99.90;;;;;;4963927;29;20646;-80
2021/06/15 08:13:29;;;;;;;6.07;2.70;;;22.30;99.90;;;;;;4961511;29;20608;-81
2021/06/15 08:15:55;;;;;;;6.13;2.33;;;22.40;99.90;;;;;;4962881;29;20173;-81
2021/06/15 08:18:21;;;;;;;5.70;2.53;;;22.60;99.90;;;;;;4947372;29;20188;-81
2021/06/15 08:20:53;;;;;;;5.07;2.50;;;22.70;99.90;;;;;;4948647;29;20192;-81
2021/06/15 08:23:19;;;;;;;8.60;2.63;;;22.80;99.90;;;;;;4966245;29;20157;-80
2021/06/15 08:25:44;;;;;;;6.60;2.77;;;23.00;99.90;;;;;;4948802;29;20209;-80
2021/06/15 08:28:11;;;;;;;7.70;3.10;;;23.10;99.90;;;;;;4965844;29;20173;-80
2021/06/15 08:30:37;;;;;;;11.23;2.93;;;23.30;99.90;;;;;;4966125;29;20566;-80
2021/06/15 08:33:03;;;;;;;4.73;2.43;;;23.50;99.90;;;;;;4965535;29;20181;-81
2021/06/15 08:35:29;;;;;;;12.37;2.57;;;23.60;99.90;;;;;;4964923;29;20178;-80
2021/06/15 08:37:55;;;;;;;5.63;2.10;;;23.60;99.90;;;;;;4948656;29;20240;-80
2021/06/15 08:40:21;;;;;;;3.73;2.17;;;23.70;99.90;;;;;;4948189;29;20188;-80
2021/06/15 08:42:47;;;;;;;5.17;2.30;;;23.90;99.90;;;;;;4965438;29;20195;-81
2021/06/15 08:45:15;;;;;;;2.40;1.90;;;24.20;99.90;;;;;;4949210;29;20215;-80
2021/06/15 08:47:43;;;;;;;6.50;2.20;;;24.50;99.90;;;;;;4949110;29;20199;-81
2021/06/15 08:50:11;;;;;;;7.77;2.03;;;24.80;99.90;;;;;;4949441;29;20186;-81
2021/06/15 08:52:37;;;;;;;2.57;1.90;;;25.10;99.90;;;;;;4966583;29;20174;-81
2021/06/15 08:55:04;;;;;;;3.30;2.07;;;25.30;99.90;;;;;;4950689;29;20190;-81
2021/06/15 08:57:31;;;;;;;6.13;2.10;;;25.40;99.90;;;;;;4962252;29;20207;-80
2021/06/15 09:00:01;;;;;;;4.67;2.40;;;25.50;99.90;;;;;;4961722;28;20631;-80
2021/06/15 09:02:26;;;;;;;4.27;2.00;;;25.50;99.90;;;;;;4961385;29;20183;-81
2021/06/15 09:04:52;;;;;;;3.43;1.97;;;25.50;99.90;;;;;;4944955;29;20626;-80
2021/06/15 09:07:19;;;;;;;5.93;2.10;;;25.40;99.90;;;;;;4962694;29;20201;-81
2021/06/15 09:09:46;;;;;;;3.07;1.70;;;25.40;99.90;;;;;;4945159;29;20179;-80
2021/06/15 09:12:15;;;;;;;3.83;1.70;;;25.40;99.90;;;;;;4944558;29;20179;-81
2021/06/15 09:14:55;;;;;;;3.10;1.80;;;25.50;99.90;;;;;;4962500;29;20621;-80
2021/06/15 09:17:27;;;;;;;5.50;1.83;;;25.70;99.90;;;;;;4945357;29;20701;-81
2021/06/15 09:19:55;;;;;;;5.37;2.37;;;25.90;99.90;;;;;;4945482;29;20183;-81
2021/06/15 09:22:39;;;;;;;7.97;1.87;;;26.00;99.90;;;;;;4944978;29;20276;-80
2021/06/15 09:25:07;;;;;;;4.83;1.83;;;26.10;99.90;;;;;;4944986;29;20196;-81
2021/06/15 09:27:38;;;;;;;4.13;2.30;;;26.30;99.90;;;;;;4961651;29;20196;-80
2021/06/15 09:30:06;;;;;;;3.60;2.00;;;26.50;99.90;;;;;;4962774;29;20648;-81
2021/06/15 09:32:38;;;;;;;2.60;1.50;;;26.60;96.10;;;;;;4961508;29;20177;-80
2021/06/15 09:35:13;;;;;;;4.67;1.90;;;26.80;96.00;;;;;;4963362;29;20182;-81
2021/06/15 09:37:40;;;;;;;3.23;2.20;;;27.00;98.40;;;;;;4961817;29;20201;-81
2021/06/15 09:40:17;;;;;;;3.23;1.80;;;27.10;94.00;;;;;;4963579;29;20209;-81
2021/06/15 09:42:53;;;;;;;3.47;1.67;;;27.30;99.90;;;;;;4963435;29;20178;-81
2021/06/15 09:45:21;;;;;;;8.13;1.97;;;27.30;95.90;;;;;;4945902;29;20228;-81
2021/06/15 09:47:47;;;;;;;3.70;2.17;;;27.40;98.00;;;;;;4945408;29;20240;-80
2021/06/15 09:50:13;;;;;;;4.13;1.70;;;27.30;92.80;;;;;;4963463;29;20627;-80
2021/06/15 09:52:39;;;;;;;2.27;1.70;;;27.20;90.90;;;;;;4945885;29;20205;-80
2021/06/15 09:55:06;;;;;;;6.37;2.30;;;27.30;94.40;;;;;;4945652;29;20178;-81
2021/06/15 09:57:45;;;;;;;3.67;1.93;;;27.30;98.10;;;;;;4945962;29;20202;-81
2021/06/15 10:00:16;;;;;;;4.27;1.93;;;27.50;93.60;;;;;;4963470;29;20624;-81
2021/06/15 10:02:58;;;;;;;17.50;3.10;;;27.70;98.90;;;;;;4945847;29;20184;-80
2021/06/15 10:05:37;;;;;;;3.73;1.93;;;28.00;95.50;;;;;;4944986;29;20261;-81
2021/06/15 10:08:05;;;;;;;4.63;2.07;;;28.30;93.30;;;;;;4944060;29;20778;-79
2021/06/15 10:10:33;;;;;;;5.13;2.10;;;28.40;94.10;;;;;;4943964;29;20279;-79
2021/06/15 10:13:00;;;;;;;7.93;2.20;;;28.40;92.10;;;;;;4943854;29;20207;-80
2021/06/15 10:15:27;;;;;;;2.37;1.63;;;28.50;91.40;;;;;;4961882;29;20198;-79
2021/06/15 10:17:54;;;;;;;5.33;1.97;;;28.50;92.50;;;;;;4962133;29;20783;-80
2021/06/15 10:20:22;;;;;;;4.63;2.00;;;28.50;90.00;;;;;;4961637;29;20178;-80
2021/06/15 10:22:49;;;;;;;3.23;1.83;;;28.60;91.50;;;;;;4961897;29;20183;-80
2021/06/15 10:25:17;;;;;;;6.07;2.43;;;28.50;90.50;;;;;;4946163;29;20231;-80
2021/06/15 10:27:43;;;;;;;5.20;2.10;;;28.60;90.30;;;;;;4964871;29;20198;-79
2021/06/15 10:30:11;;;;;;;2.53;2.07;;;28.60;88.10;;;;;;4944497;29;20266;-80
2021/06/15 10:32:53;;;;;;;2.20;2.00;;;28.70;94.10;;;;;;4961134;29;20205;-80
2021/06/15 10:35:45;;;;;;;6.43;1.97;;;28.80;90.80;;;;;;4961113;29;20186;-80
2021/06/15 10:38:16;;;;;;;4.27;2.03;;;29.10;90.30;;;;;;4943366;29;20177;-79
2021/06/15 10:40:46;;;;;;;6.57;1.63;;;29.30;91.90;;;;;;4943043;29;20178;-79
2021/06/15 10:43:31;;;;;;;4.23;1.87;;;29.40;90.40;;;;;;4959120;29;20181;-79
2021/06/15 10:46:14;;;;;;;5.37;2.07;;;29.60;84.40;;;;;;4942637;29;20567;-80
2021/06/15 10:48:54;;;;;;;4.50;1.70;;;29.80;82.90;;;;;;4960488;29;20153;-79
2021/06/15 10:51:24;;;;;;;3.53;1.90;;;29.80;85.80;;;;;;4960617;29;20225;-79
2021/06/15 10:53:50;;;;;;;7.77;1.87;;;29.90;75.70;;;;;;4942448;29;20181;-79
2021/06/15 10:56:19;;;;;;;3.80;1.53;;;29.70;84.60;;;;;;4970509;28;20229;-81
2021/06/15 10:58:47;;;;;;;4.07;1.90;;;29.80;85.40;;;;;;4981488;28;20582;-81
2021/06/15 11:01:14;;;;;;;3.60;1.57;;;30.00;80.00;;;;;;4964287;28;20184;-80
2021/06/15 11:03:52;;;;;;;3.43;1.40;;;29.90;73.20;;;;;;4982235;28;20183;-81
2021/06/15 11:06:19;;;;;;;4.40;1.50;;;29.90;80.70;;;;;;4968826;28;20222;-81
2021/06/15 11:08:45;;;;;;;4.77;1.60;;;30.10;84.80;;;;;;4985162;28;20168;-81
2021/06/15 11:11:21;;;;;;;3.57;1.67;;;30.10;72.30;;;;;;4983543;28;20201;-81
2021/06/15 11:13:51;;;;;;;3.30;1.70;;;30.10;78.60;;;;;;4966136;28;20192;-81
2021/06/15 11:16:46;;;;;;;3.27;1.33;;;30.30;75.40;;;;;;4983195;28;20554;-81
2021/06/15 11:19:16;;;;;;;6.27;1.90;;;30.50;72.80;;;;;;4966207;28;20172;-80
2021/06/15 11:22:00;;;;;;;5.10;2.00;;;30.60;68.60;;;;;;4983975;28;20225;-81
2021/06/15 11:24:36;;;;;;;6.00;1.77;;;31.00;78.70;;;;;;4967697;28;20237;-82
2021/06/15 11:27:07;;;;;;;5.13;2.20;;;31.30;70.40;;;;;;4968260;28;20224;-82
2021/06/15 11:29:36;;;;;;;3.73;1.60;;;31.90;72.20;;;;;;4967359;28;20177;-80
2021/06/15 11:32:29;;;;;;;3.97;1.77;;;32.30;70.20;;;;;;4960745;28;20646;-81
2021/06/15 11:35:02;;;;;;;6.63;1.70;;;32.40;67.30;;;;;;4962482;28;20185;-82
2021/06/15 11:37:37;;;;;;;2.50;1.70;;;32.50;66.70;;;;;;4962971;28;20208;-81
2021/06/15 11:40:12;;;;;;;5.80;1.80;;;32.50;64.60;;;;;;4979633;28;20227;-81
2021/06/15 11:42:38;;;;;;;3.47;1.97;;;32.60;63.70;;;;;;4980109;28;20175;-81
2021/06/15 11:45:11;;;;;;;5.73;1.53;;;33.10;71.30;;;;;;4980356;28;20209;-80
2021/06/15 11:48:02;;;;;;;6.40;1.57;;;33.50;62.70;;;;;;4962465;28;20205;-81
2021/06/15 11:50:34;;;;;;;4.67;1.80;;;33.50;57.70;;;;;;4950336;28;20329;-81
2021/06/15 11:53:29;;;;;;;12.43;2.07;;;33.40;58.70;;;;;;4979112;28;20168;-80
2021/06/15 11:55:58;;;;;;;4.00;1.80;;;33.10;56.40;;;;;;4977174;28;20664;-81
2021/06/15 11:58:27;;;;;;;5.17;1.53;;;33.30;55.30;;;;;;4962503;28;20193;-81
2021/06/15 12:00:56;;;;;;;3.23;1.27;;;33.40;57.90;;;;;;4961589;28;20180;-81
2021/06/15 12:03:24;;;;;;;2.80;1.50;;;33.40;56.30;;;;;;4962028;28;20189;-81
2021/06/15 12:05:52;;;;;;;2.60;1.43;;;33.40;55.90;;;;;;4961694;28;20256;-80
2021/06/15 12:08:20;;;;;;;5.57;1.73;;;33.30;56.00;;;;;;4961928;28;20547;-80
2021/06/15 12:10:47;;;;;;;1.77;1.20;;;33.20;54.40;;;;;;4979403;28;20171;-80
2021/06/15 12:13:15;;;;;;;8.77;2.00;;;33.60;56.70;;;;;;4978683;28;20179;-80
2021/06/15 12:15:47;;;;;;;14.57;1.90;;;33.60;55.10;;;;;;4961839;28;20277;-80
2021/06/15 12:18:16;;;;;;;1.57;1.40;;;33.50;55.70;;;;;;4978746;28;20201;-80
2021/06/15 12:20:43;;;;;;;4.23;1.50;;;34.00;55.70;;;;;;4962544;28;20178;-81
2021/06/15 12:23:26;;;;;;;3.00;1.47;;;34.60;56.10;;;;;;4980068;28;20175;-81
2021/06/15 12:25:53;;;;;;;2.60;1.43;;;34.80;50.20;;;;;;4979239;28;20198;-82
2021/06/15 12:28:20;;;;;;;7.77;1.73;;;34.60;51.70;;;;;;4962301;28;20196;-80
2021/06/15 12:31:01;;;;;;;3.50;1.40;;;34.40;54.40;;;;;;4980044;28;20177;-82
2021/06/15 12:33:27;;;;;;;3.03;1.90;;;34.80;52.50;;;;;;4980211;28;20174;-80
2021/06/15 12:36:04;;;;;;;5.77;1.60;;;35.00;52.70;;;;;;4983298;28;20184;-81
2021/06/15 12:38:30;;;;;;;4.80;1.53;;;34.80;52.60;;;;;;4965253;28;20623;-81
2021/06/15 12:40:57;;;;;;;3.77;1.43;;;34.60;48.50;;;;;;4984422;28;20206;-81
2021/06/15 12:43:25;;;;;;;2.13;1.10;;;34.00;49.50;;;;;;4966858;28;20192;-81
2021/06/15 12:46:07;;;;;;;1.57;1.20;;;33.80;51.80;;;;;;4984075;28;20215;-81
2021/06/15 12:48:33;;;;;;;8.40;1.60;;;34.10;48.50;;;;;;4966752;28;20168;-81
2021/06/15 12:51:07;;;;;;;4.40;1.57;;;34.10;54.70;;;;;;4984007;28;20183;-81
2021/06/15 12:53:36;;;;;;;2.77;1.50;;;33.50;49.00;;;;;;4966048;28;20190;-82
2021/06/15 12:56:32;;;;;;;3.13;1.20;;;33.40;55.40;;;;;;4966394;28;20186;-82
2021/06/15 12:58:59;;;;;;;2.23;1.30;;;33.80;53.90;;;;;;4968054;28;20189;-81
2021/06/15 13:01:36;;;;;;;3.73;1.23;;;34.00;53.00;;;;;;4986035;28;20211;-82
2021/06/15 13:04:22;;;;;;;7.03;1.37;;;34.20;54.60;;;;;;4988133;28;20198;-82